METAR Data
IDs: Format: Raw Decoded Include TAF

Data at: 0312 UTC 03 Jul 2022

METAR for:KBIJ (Blakely/Early Cnty, GA, US)
Text:KBIJ 030255Z AUTO 00000KT 10SM CLR 24/22 A3008 RMK AO2
Temperature: 24.0°C ( 75°F)
Dewpoint: 22.0°C ( 72°F) [RH = 89%]
Pressure (altimeter):30.08 inches Hg (1018.7 mb)
Winds:calm
Visibility:10 or more sm (16+ km)
Ceiling:at least 12,000 feet AGL
Clouds:sky clear below 12,000 feet AGL
QC Flag:automated observation with no human augmentation
Text:KBIJ 030235Z AUTO 00000KT 10SM SCT075 SCT100 SCT120 25/22 A3008 RMK AO2
Temperature: 25.0°C ( 77°F)
Dewpoint: 22.0°C ( 72°F) [RH = 83%]
Pressure (altimeter):30.08 inches Hg (1018.7 mb)
Winds:calm
Visibility:10 or more sm (16+ km)
Ceiling:at least 12,000 feet AGL
Clouds: scattered clouds at 7500 feet AGL, scattered clouds at 10000 feet AGL, scattered clouds at 12000 feet AGL
QC Flag:automated observation with no human augmentation
Text:KBIJ 030215Z AUTO 00000KT 10SM SCT075 SCT100 BKN120 25/22 A3008 RMK AO2
Temperature: 25.0°C ( 77°F)
Dewpoint: 22.0°C ( 72°F) [RH = 83%]
Pressure (altimeter):30.08 inches Hg (1018.7 mb)
Winds:calm
Visibility:10 or more sm (16+ km)
Ceiling:12000 feet AGL
Clouds: scattered clouds at 7500 feet AGL, scattered clouds at 10000 feet AGL, broken clouds at 12000 feet AGL
QC Flag:automated observation with no human augmentation
Text:KBIJ 030155Z AUTO 00000KT 10SM CLR 25/23 A3006 RMK AO2
Temperature: 25.0°C ( 77°F)
Dewpoint: 23.0°C ( 73°F) [RH = 89%]
Pressure (altimeter):30.06 inches Hg (1018.0 mb)
Winds:calm
Visibility:10 or more sm (16+ km)
Ceiling:at least 12,000 feet AGL
Clouds:sky clear below 12,000 feet AGL
QC Flag:automated observation with no human augmentation
Text:KBIJ 030135Z AUTO 00000KT 10SM CLR 25/23 A3005 RMK AO2
Temperature: 25.0°C ( 77°F)
Dewpoint: 23.0°C ( 73°F) [RH = 89%]
Pressure (altimeter):30.05 inches Hg (1017.7 mb)
Winds:calm
Visibility:10 or more sm (16+ km)
Ceiling:at least 12,000 feet AGL
Clouds:sky clear below 12,000 feet AGL
QC Flag:automated observation with no human augmentation
Text:KBIJ 030115Z AUTO 00000KT 10SM CLR 25/23 A3006 RMK AO2
Temperature: 25.0°C ( 77°F)
Dewpoint: 23.0°C ( 73°F) [RH = 89%]
Pressure (altimeter):30.06 inches Hg (1018.0 mb)
Winds:calm
Visibility:10 or more sm (16+ km)
Ceiling:at least 12,000 feet AGL
Clouds:sky clear below 12,000 feet AGL
QC Flag:automated observation with no human augmentation
Text:KBIJ 030055Z AUTO 00000KT 10SM CLR 25/23 A3005 RMK AO2
Temperature: 25.0°C ( 77°F)
Dewpoint: 23.0°C ( 73°F) [RH = 89%]
Pressure (altimeter):30.05 inches Hg (1017.7 mb)
Winds:calm
Visibility:10 or more sm (16+ km)
Ceiling:at least 12,000 feet AGL
Clouds:sky clear below 12,000 feet AGL
QC Flag:automated observation with no human augmentation
Text:KBIJ 030035Z AUTO 00000KT 10SM CLR 25/23 A3004 RMK AO2 LTG DSNT NE
Temperature: 25.0°C ( 77°F)
Dewpoint: 23.0°C ( 73°F) [RH = 89%]
Pressure (altimeter):30.04 inches Hg (1017.4 mb)
Winds:calm
Visibility:10 or more sm (16+ km)
Ceiling:at least 12,000 feet AGL
Clouds:sky clear below 12,000 feet AGL
QC Flag:automated observation with no human augmentation
Text:KBIJ 030015Z AUTO 00000KT 10SM CLR 26/23 A3002 RMK AO2 LTG DSNT NE
Temperature: 26.0°C ( 79°F)
Dewpoint: 23.0°C ( 73°F) [RH = 84%]
Pressure (altimeter):30.02 inches Hg (1016.7 mb)
Winds:calm
Visibility:10 or more sm (16+ km)
Ceiling:at least 12,000 feet AGL
Clouds:sky clear below 12,000 feet AGL
QC Flag:automated observation with no human augmentation
Text:KBIJ 022355Z AUTO 00000KT 10SM CLR 26/23 A3002 RMK AO2 LTG DSNT NE
Temperature: 26.0°C ( 79°F)
Dewpoint: 23.0°C ( 73°F) [RH = 84%]
Pressure (altimeter):30.02 inches Hg (1016.7 mb)
Winds:calm
Visibility:10 or more sm (16+ km)
Ceiling:at least 12,000 feet AGL
Clouds:sky clear below 12,000 feet AGL
QC Flag:automated observation with no human augmentation
Text:KBIJ 022335Z AUTO 00000KT 10SM SCT120 26/23 A3004 RMK AO2 LTG DSNT N
Temperature: 26.0°C ( 79°F)
Dewpoint: 23.0°C ( 73°F) [RH = 84%]
Pressure (altimeter):30.04 inches Hg (1017.4 mb)
Winds:calm
Visibility:10 or more sm (16+ km)
Ceiling:at least 12,000 feet AGL
Clouds: scattered clouds at 12000 feet AGL
QC Flag:automated observation with no human augmentation
Text:KBIJ 022315Z AUTO 00000KT 10SM SCT120 26/23 A3003 RMK AO2 LTG DSNT N AND SE
Temperature: 26.0°C ( 79°F)
Dewpoint: 23.0°C ( 73°F) [RH = 84%]
Pressure (altimeter):30.03 inches Hg (1017.0 mb)
Winds:calm
Visibility:10 or more sm (16+ km)
Ceiling:at least 12,000 feet AGL
Clouds: scattered clouds at 12000 feet AGL
QC Flag:automated observation with no human augmentation
Text:KBIJ 022255Z AUTO 16003KT 10SM SCT029 SCT039 26/23 A3003 RMK AO2 LTG DSNT S
Temperature: 26.0°C ( 79°F)
Dewpoint: 23.0°C ( 73°F) [RH = 84%]
Pressure (altimeter):30.03 inches Hg (1017.0 mb)
Winds:from the SSE (160 degrees) at 3 MPH (3 knots; 1.5 m/s)
Visibility:10 or more sm (16+ km)
Ceiling:at least 12,000 feet AGL
Clouds: scattered clouds at 2900 feet AGL, scattered clouds at 3900 feet AGL
QC Flag:automated observation with no human augmentation
Text:KBIJ 022235Z AUTO 00000KT 10SM OVC027 26/23 A3003 RMK AO2 LTG DSNT NE AND E
Temperature: 26.0°C ( 79°F)
Dewpoint: 23.0°C ( 73°F) [RH = 84%]
Pressure (altimeter):30.03 inches Hg (1017.0 mb)
Winds:calm
Visibility:10 or more sm (16+ km)
Ceiling:2700 feet AGL
Clouds: overcast cloud deck at 2700 feet AGL
QC Flag:automated observation with no human augmentation
Text:KBIJ 022215Z AUTO 16003KT 10SM TS OVC020 25/23 A3004 RMK AO2 LTG DSNT E THRU S
Temperature: 25.0°C ( 77°F)
Dewpoint: 23.0°C ( 73°F) [RH = 89%]
Pressure (altimeter):30.04 inches Hg (1017.4 mb)
Winds:from the SSE (160 degrees) at 3 MPH (3 knots; 1.5 m/s)
Visibility:10 or more sm (16+ km)
Ceiling:2000 feet AGL
Clouds: overcast cloud deck at 2000 feet AGL
Weather:TS (thunderstorm)
QC Flag:automated observation with no human augmentation
Text:KBIJ 022155Z AUTO 09003KT 10SM BKN022 BKN027 OVC034 26/23 A3003 RMK AO2 LTG DSNT E THRU S
Temperature: 26.0°C ( 79°F)
Dewpoint: 23.0°C ( 73°F) [RH = 84%]
Pressure (altimeter):30.03 inches Hg (1017.0 mb)
Winds:from the E (90 degrees) at 3 MPH (3 knots; 1.5 m/s)
Visibility:10 or more sm (16+ km)
Ceiling:2200 feet AGL
Clouds: broken clouds at 2200 feet AGL, broken clouds at 2700 feet AGL, overcast cloud deck at 3400 feet AGL
QC Flag:automated observation with no human augmentation
Text:KBIJ 022135Z AUTO 17003KT 1 1/2SM -VCTSRA SCT018 BKN033 OVC038 26/23 A3002 RMK AO2 LTG DSNT E THRU S
Temperature: 26.0°C ( 79°F)
Dewpoint: 23.0°C ( 73°F) [RH = 84%]
Pressure (altimeter):30.02 inches Hg (1016.7 mb)
Winds:from the S (170 degrees) at 3 MPH (3 knots; 1.5 m/s)
Visibility: 1.50 sm ( 2.41 km)
Ceiling:3300 feet AGL
Clouds: scattered clouds at 1800 feet AGL, broken clouds at 3300 feet AGL, overcast cloud deck at 3800 feet AGL
Weather:VCTS -RA (thunderstorm in vicinity, light rain)
QC Flag:automated observation with no human augmentation
Text:KBIJ 022115Z AUTO 22007KT 10SM OVC040 28/21 A3001 RMK AO2 LTG DSNT S
Temperature: 28.0°C ( 82°F)
Dewpoint: 21.0°C ( 70°F) [RH = 66%]
Pressure (altimeter):30.01 inches Hg (1016.3 mb)
Winds:from the SW (220 degrees) at 8 MPH (7 knots; 3.6 m/s)
Visibility:10 or more sm (16+ km)
Ceiling:4000 feet AGL
Clouds: overcast cloud deck at 4000 feet AGL
QC Flag:automated observation with no human augmentation
Text:KBIJ 022055Z AUTO 25004KT 10SM BKN042 BKN050 BKN070 30/22 A3002 RMK AO2 LTG DSNT SW
Temperature: 30.0°C ( 86°F)
Dewpoint: 22.0°C ( 72°F) [RH = 62%]
Pressure (altimeter):30.02 inches Hg (1016.7 mb)
Winds:from the WSW (250 degrees) at 5 MPH (4 knots; 2.1 m/s)
Visibility:10 or more sm (16+ km)
Ceiling:4200 feet AGL
Clouds: broken clouds at 4200 feet AGL, broken clouds at 5000 feet AGL, broken clouds at 7000 feet AGL
QC Flag:automated observation with no human augmentation
Text:KBIJ 022035Z AUTO 25005KT 10SM SCT042 SCT050 SCT065 31/21 A3001 RMK AO2 LTG DSNT E AND SW
Temperature: 31.0°C ( 88°F)
Dewpoint: 21.0°C ( 70°F) [RH = 55%]
Pressure (altimeter):30.01 inches Hg (1016.3 mb)
Winds:from the WSW (250 degrees) at 6 MPH (5 knots; 2.6 m/s)
Visibility:10 or more sm (16+ km)
Ceiling:at least 12,000 feet AGL
Clouds: scattered clouds at 4200 feet AGL, scattered clouds at 5000 feet AGL, scattered clouds at 6500 feet AGL
QC Flag:automated observation with no human augmentation
Text:KBIJ 022015Z AUTO 00000KT 10SM SCT065 32/22 A3001 RMK AO2 LTG DSNT SW
Temperature: 32.0°C ( 90°F)
Dewpoint: 22.0°C ( 72°F) [RH = 56%]
Pressure (altimeter):30.01 inches Hg (1016.3 mb)
Winds:calm
Visibility:10 or more sm (16+ km)
Ceiling:at least 12,000 feet AGL
Clouds: scattered clouds at 6500 feet AGL
QC Flag:automated observation with no human augmentation
Text:KBIJ 021955Z AUTO 27004KT 10SM CLR 32/21 A3001 RMK AO2 LTG DSNT E AND SW
Temperature: 32.0°C ( 90°F)
Dewpoint: 21.0°C ( 70°F) [RH = 52%]
Pressure (altimeter):30.01 inches Hg (1016.3 mb)
Winds:from the W (270 degrees) at 5 MPH (4 knots; 2.1 m/s)
Visibility:10 or more sm (16+ km)
Ceiling:at least 12,000 feet AGL
Clouds:sky clear below 12,000 feet AGL
QC Flag:automated observation with no human augmentation
Text:KBIJ 021935Z AUTO 28003KT 10SM CLR 31/21 A3001 RMK AO2 LTG DSNT SW
Temperature: 31.0°C ( 88°F)
Dewpoint: 21.0°C ( 70°F) [RH = 55%]
Pressure (altimeter):30.01 inches Hg (1016.3 mb)
Winds:from the W (280 degrees) at 3 MPH (3 knots; 1.5 m/s)
Visibility:10 or more sm (16+ km)
Ceiling:at least 12,000 feet AGL
Clouds:sky clear below 12,000 feet AGL
QC Flag:automated observation with no human augmentation
Text:KBIJ 021915Z AUTO 27003KT 10SM CLR 31/21 A3002 RMK AO2
Temperature: 31.0°C ( 88°F)
Dewpoint: 21.0°C ( 70°F) [RH = 55%]
Pressure (altimeter):30.02 inches Hg (1016.7 mb)
Winds:from the W (270 degrees) at 3 MPH (3 knots; 1.5 m/s)
Visibility:10 or more sm (16+ km)
Ceiling:at least 12,000 feet AGL
Clouds:sky clear below 12,000 feet AGL
QC Flag:automated observation with no human augmentation
Text:KBIJ 021855Z AUTO 00000KT 10SM SCT035 SCT041 31/21 A3002 RMK AO2
Temperature: 31.0°C ( 88°F)
Dewpoint: 21.0°C ( 70°F) [RH = 55%]
Pressure (altimeter):30.02 inches Hg (1016.7 mb)
Winds:calm
Visibility:10 or more sm (16+ km)
Ceiling:at least 12,000 feet AGL
Clouds: scattered clouds at 3500 feet AGL, scattered clouds at 4100 feet AGL
QC Flag:automated observation with no human augmentation
Text:KBIJ 021835Z AUTO 00000KT 10SM SCT035 31/21 A3003 RMK AO2 LTG DSNT SE
Temperature: 31.0°C ( 88°F)
Dewpoint: 21.0°C ( 70°F) [RH = 55%]
Pressure (altimeter):30.03 inches Hg (1017.0 mb)
Winds:calm
Visibility:10 or more sm (16+ km)
Ceiling:at least 12,000 feet AGL
Clouds: scattered clouds at 3500 feet AGL
QC Flag:automated observation with no human augmentation
Text:KBIJ 021815Z AUTO 28003KT 10SM SCT032 31/22 A3004 RMK AO2
Temperature: 31.0°C ( 88°F)
Dewpoint: 22.0°C ( 72°F) [RH = 59%]
Pressure (altimeter):30.04 inches Hg (1017.4 mb)
Winds:from the W (280 degrees) at 3 MPH (3 knots; 1.5 m/s)
Visibility:10 or more sm (16+ km)
Ceiling:at least 12,000 feet AGL
Clouds: scattered clouds at 3200 feet AGL
QC Flag:automated observation with no human augmentation
Text:KBIJ 021755Z AUTO 24003KT 10SM SCT032 30/22 A3005 RMK AO2
Temperature: 30.0°C ( 86°F)
Dewpoint: 22.0°C ( 72°F) [RH = 62%]
Pressure (altimeter):30.05 inches Hg (1017.7 mb)
Winds:from the WSW (240 degrees) at 3 MPH (3 knots; 1.5 m/s)
Visibility:10 or more sm (16+ km)
Ceiling:at least 12,000 feet AGL
Clouds: scattered clouds at 3200 feet AGL
QC Flag:automated observation with no human augmentation
Text:KBIJ 021735Z AUTO 25004KT 10SM SCT028 30/22 A3005 RMK AO2
Temperature: 30.0°C ( 86°F)
Dewpoint: 22.0°C ( 72°F) [RH = 62%]
Pressure (altimeter):30.05 inches Hg (1017.7 mb)
Winds:from the WSW (250 degrees) at 5 MPH (4 knots; 2.1 m/s)
Visibility:10 or more sm (16+ km)
Ceiling:at least 12,000 feet AGL
Clouds: scattered clouds at 2800 feet AGL
QC Flag:automated observation with no human augmentation
Text:KBIJ 021715Z AUTO 00000KT 10SM SCT026 30/22 A3006 RMK AO2
Temperature: 30.0°C ( 86°F)
Dewpoint: 22.0°C ( 72°F) [RH = 62%]
Pressure (altimeter):30.06 inches Hg (1018.0 mb)
Winds:calm
Visibility:10 or more sm (16+ km)
Ceiling:at least 12,000 feet AGL
Clouds: scattered clouds at 2600 feet AGL
QC Flag:automated observation with no human augmentation
Text:KBIJ 021655Z AUTO 25003KT 10SM SCT026 SCT032 SCT050 29/22 A3007 RMK AO2
Temperature: 29.0°C ( 84°F)
Dewpoint: 22.0°C ( 72°F) [RH = 66%]
Pressure (altimeter):30.07 inches Hg (1018.4 mb)
Winds:from the WSW (250 degrees) at 3 MPH (3 knots; 1.5 m/s)
Visibility:10 or more sm (16+ km)
Ceiling:at least 12,000 feet AGL
Clouds: scattered clouds at 2600 feet AGL, scattered clouds at 3200 feet AGL, scattered clouds at 5000 feet AGL
QC Flag:automated observation with no human augmentation
Text:KBIJ 021635Z AUTO 30004KT 10SM SCT026 SCT033 SCT041 29/22 A3007 RMK AO2
Temperature: 29.0°C ( 84°F)
Dewpoint: 22.0°C ( 72°F) [RH = 66%]
Pressure (altimeter):30.07 inches Hg (1018.4 mb)
Winds:from the WNW (300 degrees) at 5 MPH (4 knots; 2.1 m/s)
Visibility:10 or more sm (16+ km)
Ceiling:at least 12,000 feet AGL
Clouds: scattered clouds at 2600 feet AGL, scattered clouds at 3300 feet AGL, scattered clouds at 4100 feet AGL
QC Flag:automated observation with no human augmentation
Text:KBIJ 021615Z AUTO 00000KT 10SM CLR 29/22 A3008 RMK AO2 LTG DSNT S
Temperature: 29.0°C ( 84°F)
Dewpoint: 22.0°C ( 72°F) [RH = 66%]
Pressure (altimeter):30.08 inches Hg (1018.7 mb)
Winds:calm
Visibility:10 or more sm (16+ km)
Ceiling:at least 12,000 feet AGL
Clouds:sky clear below 12,000 feet AGL
QC Flag:automated observation with no human augmentation
Text:KBIJ 021555Z AUTO 00000KT 10SM SCT022 28/22 A3008 RMK AO2
Temperature: 28.0°C ( 82°F)
Dewpoint: 22.0°C ( 72°F) [RH = 70%]
Pressure (altimeter):30.08 inches Hg (1018.7 mb)
Winds:calm
Visibility:10 or more sm (16+ km)
Ceiling:at least 12,000 feet AGL
Clouds: scattered clouds at 2200 feet AGL
QC Flag:automated observation with no human augmentation
Text:KBIJ 021535Z AUTO 00000KT 10SM CLR 28/22 A3009 RMK AO2
Temperature: 28.0°C ( 82°F)
Dewpoint: 22.0°C ( 72°F) [RH = 70%]
Pressure (altimeter):30.09 inches Hg (1019.0 mb)
Winds:calm
Visibility:10 or more sm (16+ km)
Ceiling:at least 12,000 feet AGL
Clouds:sky clear below 12,000 feet AGL
QC Flag:automated observation with no human augmentation
Text:KBIJ 021515Z AUTO 31003KT 10SM SCT019 27/22 A3009 RMK AO2
Temperature: 27.0°C ( 81°F)
Dewpoint: 22.0°C ( 72°F) [RH = 74%]
Pressure (altimeter):30.09 inches Hg (1019.0 mb)
Winds:from the NW (310 degrees) at 3 MPH (3 knots; 1.5 m/s)
Visibility:10 or more sm (16+ km)
Ceiling:at least 12,000 feet AGL
Clouds: scattered clouds at 1900 feet AGL
QC Flag:automated observation with no human augmentation
Text:KBIJ 021455Z AUTO 00000KT 10SM SCT019 27/22 A3009 RMK AO2
Temperature: 27.0°C ( 81°F)
Dewpoint: 22.0°C ( 72°F) [RH = 74%]
Pressure (altimeter):30.09 inches Hg (1019.0 mb)
Winds:calm
Visibility:10 or more sm (16+ km)
Ceiling:at least 12,000 feet AGL
Clouds: scattered clouds at 1900 feet AGL
QC Flag:automated observation with no human augmentation
Text:KBIJ 021435Z AUTO 00000KT 10SM CLR 27/22 A3009 RMK AO2
Temperature: 27.0°C ( 81°F)
Dewpoint: 22.0°C ( 72°F) [RH = 74%]
Pressure (altimeter):30.09 inches Hg (1019.0 mb)
Winds:calm
Visibility:10 or more sm (16+ km)
Ceiling:at least 12,000 feet AGL
Clouds:sky clear below 12,000 feet AGL
QC Flag:automated observation with no human augmentation
Text:KBIJ 021415Z AUTO 00000KT 10SM CLR 27/22 A3010 RMK AO2
Temperature: 27.0°C ( 81°F)
Dewpoint: 22.0°C ( 72°F) [RH = 74%]
Pressure (altimeter):30.10 inches Hg (1019.4 mb)
Winds:calm
Visibility:10 or more sm (16+ km)
Ceiling:at least 12,000 feet AGL
Clouds:sky clear below 12,000 feet AGL
QC Flag:automated observation with no human augmentation
Text:KBIJ 021355Z AUTO 00000KT 10SM SCT070 26/22 A3010 RMK AO2
Temperature: 26.0°C ( 79°F)
Dewpoint: 22.0°C ( 72°F) [RH = 79%]
Pressure (altimeter):30.10 inches Hg (1019.4 mb)
Winds:calm
Visibility:10 or more sm (16+ km)
Ceiling:at least 12,000 feet AGL
Clouds: scattered clouds at 7000 feet AGL
QC Flag:automated observation with no human augmentation
Text:KBIJ 021335Z AUTO 00000KT 10SM CLR 26/22 A3010 RMK AO2
Temperature: 26.0°C ( 79°F)
Dewpoint: 22.0°C ( 72°F) [RH = 79%]
Pressure (altimeter):30.10 inches Hg (1019.4 mb)
Winds:calm
Visibility:10 or more sm (16+ km)
Ceiling:at least 12,000 feet AGL
Clouds:sky clear below 12,000 feet AGL
QC Flag:automated observation with no human augmentation
Text:KBIJ 021315Z AUTO 00000KT 10SM CLR 26/22 A3009 RMK AO2
Temperature: 26.0°C ( 79°F)
Dewpoint: 22.0°C ( 72°F) [RH = 79%]
Pressure (altimeter):30.09 inches Hg (1019.0 mb)
Winds:calm
Visibility:10 or more sm (16+ km)
Ceiling:at least 12,000 feet AGL
Clouds:sky clear below 12,000 feet AGL
QC Flag:automated observation with no human augmentation
Text:KBIJ 021255Z AUTO 00000KT 10SM CLR 26/22 A3009 RMK AO2
Temperature: 26.0°C ( 79°F)
Dewpoint: 22.0°C ( 72°F) [RH = 79%]
Pressure (altimeter):30.09 inches Hg (1019.0 mb)
Winds:calm
Visibility:10 or more sm (16+ km)
Ceiling:at least 12,000 feet AGL
Clouds:sky clear below 12,000 feet AGL
QC Flag:automated observation with no human augmentation
Text:KBIJ 021235Z AUTO 00000KT 10SM CLR 25/22 A3008 RMK AO2
Temperature: 25.0°C ( 77°F)
Dewpoint: 22.0°C ( 72°F) [RH = 83%]
Pressure (altimeter):30.08 inches Hg (1018.7 mb)
Winds:calm
Visibility:10 or more sm (16+ km)
Ceiling:at least 12,000 feet AGL
Clouds:sky clear below 12,000 feet AGL
QC Flag:automated observation with no human augmentation
Text:KBIJ 021215Z AUTO 00000KT 10SM CLR 24/22 A3008 RMK AO2
Temperature: 24.0°C ( 75°F)
Dewpoint: 22.0°C ( 72°F) [RH = 89%]
Pressure (altimeter):30.08 inches Hg (1018.7 mb)
Winds:calm
Visibility:10 or more sm (16+ km)
Ceiling:at least 12,000 feet AGL
Clouds:sky clear below 12,000 feet AGL
QC Flag:automated observation with no human augmentation
Text:KBIJ 021155Z AUTO 00000KT 10SM CLR 23/22 A3007 RMK AO2
Temperature: 23.0°C ( 73°F)
Dewpoint: 22.0°C ( 72°F) [RH = 94%]
Pressure (altimeter):30.07 inches Hg (1018.4 mb)
Winds:calm
Visibility:10 or more sm (16+ km)
Ceiling:at least 12,000 feet AGL
Clouds:sky clear below 12,000 feet AGL
QC Flag:automated observation with no human augmentation
Text:KBIJ 021135Z AUTO 00000KT 10SM CLR 22/21 A3007 RMK AO2
Temperature: 22.0°C ( 72°F)
Dewpoint: 21.0°C ( 70°F) [RH = 94%]
Pressure (altimeter):30.07 inches Hg (1018.4 mb)
Winds:calm
Visibility:10 or more sm (16+ km)
Ceiling:at least 12,000 feet AGL
Clouds:sky clear below 12,000 feet AGL
QC Flag:automated observation with no human augmentation
Text:KBIJ 021115Z AUTO 00000KT 7SM CLR 22/21 A3007 RMK AO2
Temperature: 22.0°C ( 72°F)
Dewpoint: 21.0°C ( 70°F) [RH = 94%]
Pressure (altimeter):30.07 inches Hg (1018.4 mb)
Winds:calm
Visibility: 7 sm ( 11 km)
Ceiling:at least 12,000 feet AGL
Clouds:sky clear below 12,000 feet AGL
QC Flag:automated observation with no human augmentation
Text:KBIJ 021055Z AUTO 00000KT 7SM CLR 22/21 A3007 RMK AO2
Temperature: 22.0°C ( 72°F)
Dewpoint: 21.0°C ( 70°F) [RH = 94%]
Pressure (altimeter):30.07 inches Hg (1018.4 mb)
Winds:calm
Visibility: 7 sm ( 11 km)
Ceiling:at least 12,000 feet AGL
Clouds:sky clear below 12,000 feet AGL
QC Flag:automated observation with no human augmentation
Text:KBIJ 021035Z AUTO 00000KT 7SM CLR 22/21 A3006 RMK AO2
Temperature: 22.0°C ( 72°F)
Dewpoint: 21.0°C ( 70°F) [RH = 94%]
Pressure (altimeter):30.06 inches Hg (1018.0 mb)
Winds:calm
Visibility: 7 sm ( 11 km)
Ceiling:at least 12,000 feet AGL
Clouds:sky clear below 12,000 feet AGL
QC Flag:automated observation with no human augmentation
Text:KBIJ 021015Z AUTO 00000KT 7SM CLR 22/21 A3005 RMK AO2
Temperature: 22.0°C ( 72°F)
Dewpoint: 21.0°C ( 70°F) [RH = 94%]
Pressure (altimeter):30.05 inches Hg (1017.7 mb)
Winds:calm
Visibility: 7 sm ( 11 km)
Ceiling:at least 12,000 feet AGL
Clouds:sky clear below 12,000 feet AGL
QC Flag:automated observation with no human augmentation
Text:KBIJ 020955Z AUTO 00000KT 10SM CLR 22/21 A3004 RMK AO2
Temperature: 22.0°C ( 72°F)
Dewpoint: 21.0°C ( 70°F) [RH = 94%]
Pressure (altimeter):30.04 inches Hg (1017.4 mb)
Winds:calm
Visibility:10 or more sm (16+ km)
Ceiling:at least 12,000 feet AGL
Clouds:sky clear below 12,000 feet AGL
QC Flag:automated observation with no human augmentation
Text:KBIJ 020935Z AUTO 00000KT 10SM CLR 22/21 A3003 RMK AO2
Temperature: 22.0°C ( 72°F)
Dewpoint: 21.0°C ( 70°F) [RH = 94%]
Pressure (altimeter):30.03 inches Hg (1017.0 mb)
Winds:calm
Visibility:10 or more sm (16+ km)
Ceiling:at least 12,000 feet AGL
Clouds:sky clear below 12,000 feet AGL
QC Flag:automated observation with no human augmentation
Text:KBIJ 020915Z AUTO 00000KT 7SM CLR 22/21 A3002 RMK AO2
Temperature: 22.0°C ( 72°F)
Dewpoint: 21.0°C ( 70°F) [RH = 94%]
Pressure (altimeter):30.02 inches Hg (1016.7 mb)
Winds:calm
Visibility: 7 sm ( 11 km)
Ceiling:at least 12,000 feet AGL
Clouds:sky clear below 12,000 feet AGL
QC Flag:automated observation with no human augmentation
Text:KBIJ 020855Z AUTO 00000KT 7SM CLR 22/21 A3002 RMK AO2
Temperature: 22.0°C ( 72°F)
Dewpoint: 21.0°C ( 70°F) [RH = 94%]
Pressure (altimeter):30.02 inches Hg (1016.7 mb)
Winds:calm
Visibility: 7 sm ( 11 km)
Ceiling:at least 12,000 feet AGL
Clouds:sky clear below 12,000 feet AGL
QC Flag:automated observation with no human augmentation
Text:KBIJ 020835Z AUTO 00000KT 10SM CLR 22/21 A3002 RMK AO2
Temperature: 22.0°C ( 72°F)
Dewpoint: 21.0°C ( 70°F) [RH = 94%]
Pressure (altimeter):30.02 inches Hg (1016.7 mb)
Winds:calm
Visibility:10 or more sm (16+ km)
Ceiling:at least 12,000 feet AGL
Clouds:sky clear below 12,000 feet AGL
QC Flag:automated observation with no human augmentation
Text:KBIJ 020815Z AUTO 00000KT 10SM CLR 22/21 A3002 RMK AO2
Temperature: 22.0°C ( 72°F)
Dewpoint: 21.0°C ( 70°F) [RH = 94%]
Pressure (altimeter):30.02 inches Hg (1016.7 mb)
Winds:calm
Visibility:10 or more sm (16+ km)
Ceiling:at least 12,000 feet AGL
Clouds:sky clear below 12,000 feet AGL
QC Flag:automated observation with no human augmentation
Text:KBIJ 020755Z AUTO 00000KT 10SM CLR 22/21 A3001 RMK AO2
Temperature: 22.0°C ( 72°F)
Dewpoint: 21.0°C ( 70°F) [RH = 94%]
Pressure (altimeter):30.01 inches Hg (1016.3 mb)
Winds:calm
Visibility:10 or more sm (16+ km)
Ceiling:at least 12,000 feet AGL
Clouds:sky clear below 12,000 feet AGL
QC Flag:automated observation with no human augmentation
Text:KBIJ 020735Z AUTO 00000KT 10SM CLR 22/21 A3001 RMK AO2
Temperature: 22.0°C ( 72°F)
Dewpoint: 21.0°C ( 70°F) [RH = 94%]
Pressure (altimeter):30.01 inches Hg (1016.3 mb)
Winds:calm
Visibility:10 or more sm (16+ km)
Ceiling:at least 12,000 feet AGL
Clouds:sky clear below 12,000 feet AGL
QC Flag:automated observation with no human augmentation
Text:KBIJ 020715Z AUTO 00000KT 10SM CLR 22/21 A3001 RMK AO2
Temperature: 22.0°C ( 72°F)
Dewpoint: 21.0°C ( 70°F) [RH = 94%]
Pressure (altimeter):30.01 inches Hg (1016.3 mb)
Winds:calm
Visibility:10 or more sm (16+ km)
Ceiling:at least 12,000 feet AGL
Clouds:sky clear below 12,000 feet AGL
QC Flag:automated observation with no human augmentation
Text:KBIJ 020655Z AUTO 00000KT 10SM CLR 22/21 A3001 RMK AO2
Temperature: 22.0°C ( 72°F)
Dewpoint: 21.0°C ( 70°F) [RH = 94%]
Pressure (altimeter):30.01 inches Hg (1016.3 mb)
Winds:calm
Visibility:10 or more sm (16+ km)
Ceiling:at least 12,000 feet AGL
Clouds:sky clear below 12,000 feet AGL
QC Flag:automated observation with no human augmentation
Text:KBIJ 020635Z AUTO 00000KT 7SM CLR 23/21 A3002 RMK AO2
Temperature: 23.0°C ( 73°F)
Dewpoint: 21.0°C ( 70°F) [RH = 89%]
Pressure (altimeter):30.02 inches Hg (1016.7 mb)
Winds:calm
Visibility: 7 sm ( 11 km)
Ceiling:at least 12,000 feet AGL
Clouds:sky clear below 12,000 feet AGL
QC Flag:automated observation with no human augmentation
Text:KBIJ 020615Z AUTO 00000KT 10SM CLR 23/22 A3002 RMK AO2
Temperature: 23.0°C ( 73°F)
Dewpoint: 22.0°C ( 72°F) [RH = 94%]
Pressure (altimeter):30.02 inches Hg (1016.7 mb)
Winds:calm
Visibility:10 or more sm (16+ km)
Ceiling:at least 12,000 feet AGL
Clouds:sky clear below 12,000 feet AGL
QC Flag:automated observation with no human augmentation
Text:KBIJ 020555Z AUTO 00000KT 10SM CLR 23/22 A3003 RMK AO2
Temperature: 23.0°C ( 73°F)
Dewpoint: 22.0°C ( 72°F) [RH = 94%]
Pressure (altimeter):30.03 inches Hg (1017.0 mb)
Winds:calm
Visibility:10 or more sm (16+ km)
Ceiling:at least 12,000 feet AGL
Clouds:sky clear below 12,000 feet AGL
QC Flag:automated observation with no human augmentation
Text:KBIJ 020535Z AUTO 00000KT 10SM CLR 23/22 A3004 RMK AO2
Temperature: 23.0°C ( 73°F)
Dewpoint: 22.0°C ( 72°F) [RH = 94%]
Pressure (altimeter):30.04 inches Hg (1017.4 mb)
Winds:calm
Visibility:10 or more sm (16+ km)
Ceiling:at least 12,000 feet AGL
Clouds:sky clear below 12,000 feet AGL
QC Flag:automated observation with no human augmentation
Text:KBIJ 020515Z AUTO 00000KT 10SM CLR 23/22 A3005 RMK AO2
Temperature: 23.0°C ( 73°F)
Dewpoint: 22.0°C ( 72°F) [RH = 94%]
Pressure (altimeter):30.05 inches Hg (1017.7 mb)
Winds:calm
Visibility:10 or more sm (16+ km)
Ceiling:at least 12,000 feet AGL
Clouds:sky clear below 12,000 feet AGL
QC Flag:automated observation with no human augmentation
Text:KBIJ 020455Z AUTO 00000KT 10SM CLR 23/22 A3005 RMK AO2
Temperature: 23.0°C ( 73°F)
Dewpoint: 22.0°C ( 72°F) [RH = 94%]
Pressure (altimeter):30.05 inches Hg (1017.7 mb)
Winds:calm
Visibility:10 or more sm (16+ km)
Ceiling:at least 12,000 feet AGL
Clouds:sky clear below 12,000 feet AGL
QC Flag:automated observation with no human augmentation
Text:KBIJ 020435Z AUTO 00000KT 10SM CLR 23/22 A3006 RMK AO2
Temperature: 23.0°C ( 73°F)
Dewpoint: 22.0°C ( 72°F) [RH = 94%]
Pressure (altimeter):30.06 inches Hg (1018.0 mb)
Winds:calm
Visibility:10 or more sm (16+ km)
Ceiling:at least 12,000 feet AGL
Clouds:sky clear below 12,000 feet AGL
QC Flag:automated observation with no human augmentation
Text:KBIJ 020415Z AUTO 00000KT 10SM CLR 23/22 A3007 RMK AO2
Temperature: 23.0°C ( 73°F)
Dewpoint: 22.0°C ( 72°F) [RH = 94%]
Pressure (altimeter):30.07 inches Hg (1018.4 mb)
Winds:calm
Visibility:10 or more sm (16+ km)
Ceiling:at least 12,000 feet AGL
Clouds:sky clear below 12,000 feet AGL
QC Flag:automated observation with no human augmentation
Text:KBIJ 020355Z AUTO 00000KT 10SM CLR 23/22 A3007 RMK AO2
Temperature: 23.0°C ( 73°F)
Dewpoint: 22.0°C ( 72°F) [RH = 94%]
Pressure (altimeter):30.07 inches Hg (1018.4 mb)
Winds:calm
Visibility:10 or more sm (16+ km)
Ceiling:at least 12,000 feet AGL
Clouds:sky clear below 12,000 feet AGL
QC Flag:automated observation with no human augmentation
Text:KBIJ 020335Z AUTO 00000KT 10SM SCT039 23/22 A3007 RMK AO2
Temperature: 23.0°C ( 73°F)
Dewpoint: 22.0°C ( 72°F) [RH = 94%]
Pressure (altimeter):30.07 inches Hg (1018.4 mb)
Winds:calm
Visibility:10 or more sm (16+ km)
Ceiling:at least 12,000 feet AGL
Clouds: scattered clouds at 3900 feet AGL
QC Flag:automated observation with no human augmentation
Text:KBIJ 020315Z AUTO 00000KT 10SM SCT039 SCT049 23/22 A3007 RMK AO2 LTG DSNT NE
Temperature: 23.0°C ( 73°F)
Dewpoint: 22.0°C ( 72°F) [RH = 94%]
Pressure (altimeter):30.07 inches Hg (1018.4 mb)
Winds:calm
Visibility:10 or more sm (16+ km)
Ceiling:at least 12,000 feet AGL
Clouds: scattered clouds at 3900 feet AGL, scattered clouds at 4900 feet AGL
QC Flag:automated observation with no human augmentation
Text:KBIJ 020255Z AUTO 00000KT 10SM CLR 24/22 A3007 RMK AO2
Temperature: 24.0°C ( 75°F)
Dewpoint: 22.0°C ( 72°F) [RH = 89%]
Pressure (altimeter):30.07 inches Hg (1018.4 mb)
Winds:calm
Visibility:10 or more sm (16+ km)
Ceiling:at least 12,000 feet AGL
Clouds:sky clear below 12,000 feet AGL
QC Flag:automated observation with no human augmentation
Text:KBIJ 020235Z AUTO 00000KT 10SM CLR 25/22 A3006 RMK AO2
Temperature: 25.0°C ( 77°F)
Dewpoint: 22.0°C ( 72°F) [RH = 83%]
Pressure (altimeter):30.06 inches Hg (1018.0 mb)
Winds:calm
Visibility:10 or more sm (16+ km)
Ceiling:at least 12,000 feet AGL
Clouds:sky clear below 12,000 feet AGL
QC Flag:automated observation with no human augmentation
Text:KBIJ 020215Z AUTO 00000KT 10SM CLR 24/22 A3006 RMK AO2 LTG DSNT E
Temperature: 24.0°C ( 75°F)
Dewpoint: 22.0°C ( 72°F) [RH = 89%]
Pressure (altimeter):30.06 inches Hg (1018.0 mb)
Winds:calm
Visibility:10 or more sm (16+ km)
Ceiling:at least 12,000 feet AGL
Clouds:sky clear below 12,000 feet AGL
QC Flag:automated observation with no human augmentation
Text:KBIJ 020155Z AUTO 00000KT 10SM SCT050 25/22 A3006 RMK AO2 LTG DSNT E
Temperature: 25.0°C ( 77°F)
Dewpoint: 22.0°C ( 72°F) [RH = 83%]
Pressure (altimeter):30.06 inches Hg (1018.0 mb)
Winds:calm
Visibility:10 or more sm (16+ km)
Ceiling:at least 12,000 feet AGL
Clouds: scattered clouds at 5000 feet AGL
QC Flag:automated observation with no human augmentation
Text:KBIJ 020135Z AUTO 00000KT 10SM SCT050 25/23 A3005 RMK AO2 LTG DSNT E AND NW
Temperature: 25.0°C ( 77°F)
Dewpoint: 23.0°C ( 73°F) [RH = 89%]
Pressure (altimeter):30.05 inches Hg (1017.7 mb)
Winds:calm
Visibility:10 or more sm (16+ km)
Ceiling:at least 12,000 feet AGL
Clouds: scattered clouds at 5000 feet AGL
QC Flag:automated observation with no human augmentation
Text:KBIJ 020115Z AUTO 00000KT 10SM SCT046 SCT050 25/23 A3005 RMK AO2
Temperature: 25.0°C ( 77°F)
Dewpoint: 23.0°C ( 73°F) [RH = 89%]
Pressure (altimeter):30.05 inches Hg (1017.7 mb)
Winds:calm
Visibility:10 or more sm (16+ km)
Ceiling:at least 12,000 feet AGL
Clouds: scattered clouds at 4600 feet AGL, scattered clouds at 5000 feet AGL
QC Flag:automated observation with no human augmentation
Text:KBIJ 020055Z AUTO 00000KT 10SM SCT046 SCT050 25/23 A3005 RMK AO2 LTG DSNT E
Temperature: 25.0°C ( 77°F)
Dewpoint: 23.0°C ( 73°F) [RH = 89%]
Pressure (altimeter):30.05 inches Hg (1017.7 mb)
Winds:calm
Visibility:10 or more sm (16+ km)
Ceiling:at least 12,000 feet AGL
Clouds: scattered clouds at 4600 feet AGL, scattered clouds at 5000 feet AGL
QC Flag:automated observation with no human augmentation
Text:KBIJ 020035Z AUTO 00000KT 10SM SCT048 SCT070 SCT100 26/23 A3004 RMK AO2 LTG DSNT N
Temperature: 26.0°C ( 79°F)
Dewpoint: 23.0°C ( 73°F) [RH = 84%]
Pressure (altimeter):30.04 inches Hg (1017.4 mb)
Winds:calm
Visibility:10 or more sm (16+ km)
Ceiling:at least 12,000 feet AGL
Clouds: scattered clouds at 4800 feet AGL, scattered clouds at 7000 feet AGL, scattered clouds at 10000 feet AGL
QC Flag:automated observation with no human augmentation
Text:KBIJ 020015Z AUTO 00000KT 10SM SCT060 SCT075 SCT095 27/22 A3004 RMK AO2 LTG DSNT N AND NE
Temperature: 27.0°C ( 81°F)
Dewpoint: 22.0°C ( 72°F) [RH = 74%]
Pressure (altimeter):30.04 inches Hg (1017.4 mb)
Winds:calm
Visibility:10 or more sm (16+ km)
Ceiling:at least 12,000 feet AGL
Clouds: scattered clouds at 6000 feet AGL, scattered clouds at 7500 feet AGL, scattered clouds at 9500 feet AGL
QC Flag:automated observation with no human augmentation
Text:KBIJ 012355Z AUTO 00000KT 10SM SCT038 SCT070 27/21 A3003 RMK AO2
Temperature: 27.0°C ( 81°F)
Dewpoint: 21.0°C ( 70°F) [RH = 70%]
Pressure (altimeter):30.03 inches Hg (1017.0 mb)
Winds:calm
Visibility:10 or more sm (16+ km)
Ceiling:at least 12,000 feet AGL
Clouds: scattered clouds at 3800 feet AGL, scattered clouds at 7000 feet AGL
QC Flag:automated observation with no human augmentation
Text:KBIJ 012335Z AUTO 24011G14KT 10SM VCTS SCT070 28/23 A3004 RMK AO2 LTG DSNT N
Temperature: 28.0°C ( 82°F)
Dewpoint: 23.0°C ( 73°F) [RH = 74%]
Pressure (altimeter):30.04 inches Hg (1017.4 mb)
Winds:from the WSW (240 degrees) at 13 MPH (11 knots; 5.7 m/s) gusting to 16 MPH (14 knots; 7.2 m/s)
Visibility:10 or more sm (16+ km)
Ceiling:at least 12,000 feet AGL
Clouds: scattered clouds at 7000 feet AGL
Weather:VCTS (thunderstorm in vicinity)
QC Flag:automated observation with no human augmentation
Text:KBIJ 012315Z AUTO 00000KT 10SM CLR 28/23 A3002 RMK AO2 LTG DSNT SE AND SW
Temperature: 28.0°C ( 82°F)
Dewpoint: 23.0°C ( 73°F) [RH = 74%]
Pressure (altimeter):30.02 inches Hg (1016.7 mb)
Winds:calm
Visibility:10 or more sm (16+ km)
Ceiling:at least 12,000 feet AGL
Clouds:sky clear below 12,000 feet AGL
QC Flag:automated observation with no human augmentation
Text:KBIJ 012255Z AUTO 00000KT 10SM CLR 28/22 A3002 RMK AO2
Temperature: 28.0°C ( 82°F)
Dewpoint: 22.0°C ( 72°F) [RH = 70%]
Pressure (altimeter):30.02 inches Hg (1016.7 mb)
Winds:calm
Visibility:10 or more sm (16+ km)
Ceiling:at least 12,000 feet AGL
Clouds:sky clear below 12,000 feet AGL
QC Flag:automated observation with no human augmentation
Text:KBIJ 012235Z AUTO 00000KT 10SM CLR 28/23 A3001 RMK AO2 LTG DSNT SE
Temperature: 28.0°C ( 82°F)
Dewpoint: 23.0°C ( 73°F) [RH = 74%]
Pressure (altimeter):30.01 inches Hg (1016.3 mb)
Winds:calm
Visibility:10 or more sm (16+ km)
Ceiling:at least 12,000 feet AGL
Clouds:sky clear below 12,000 feet AGL
QC Flag:automated observation with no human augmentation
Text:KBIJ 012215Z AUTO 00000KT 10SM CLR 28/22 A3002 RMK AO2 LTG DSNT E AND SE
Temperature: 28.0°C ( 82°F)
Dewpoint: 22.0°C ( 72°F) [RH = 70%]
Pressure (altimeter):30.02 inches Hg (1016.7 mb)
Winds:calm
Visibility:10 or more sm (16+ km)
Ceiling:at least 12,000 feet AGL
Clouds:sky clear below 12,000 feet AGL
QC Flag:automated observation with no human augmentation
Text:KBIJ 012155Z AUTO 00000KT 10SM CLR 28/22 A3002 RMK AO2 LTG DSNT NW
Temperature: 28.0°C ( 82°F)
Dewpoint: 22.0°C ( 72°F) [RH = 70%]
Pressure (altimeter):30.02 inches Hg (1016.7 mb)
Winds:calm
Visibility:10 or more sm (16+ km)
Ceiling:at least 12,000 feet AGL
Clouds:sky clear below 12,000 feet AGL
QC Flag:automated observation with no human augmentation
Text:KBIJ 012135Z AUTO 00000KT 10SM CLR 30/22 A3002 RMK AO2 LTG DSNT NW
Temperature: 30.0°C ( 86°F)
Dewpoint: 22.0°C ( 72°F) [RH = 62%]
Pressure (altimeter):30.02 inches Hg (1016.7 mb)
Winds:calm
Visibility:10 or more sm (16+ km)
Ceiling:at least 12,000 feet AGL
Clouds:sky clear below 12,000 feet AGL
QC Flag:automated observation with no human augmentation
Text:KBIJ 012115Z AUTO 00000KT 10SM CLR 30/21 A3002 RMK AO2
Temperature: 30.0°C ( 86°F)
Dewpoint: 21.0°C ( 70°F) [RH = 59%]
Pressure (altimeter):30.02 inches Hg (1016.7 mb)
Winds:calm
Visibility:10 or more sm (16+ km)
Ceiling:at least 12,000 feet AGL
Clouds:sky clear below 12,000 feet AGL
QC Flag:automated observation with no human augmentation
Text:KBIJ 012055Z AUTO 00000KT 10SM CLR 30/22 A3002 RMK AO2 LTG DSNT N
Temperature: 30.0°C ( 86°F)
Dewpoint: 22.0°C ( 72°F) [RH = 62%]
Pressure (altimeter):30.02 inches Hg (1016.7 mb)
Winds:calm
Visibility:10 or more sm (16+ km)
Ceiling:at least 12,000 feet AGL
Clouds:sky clear below 12,000 feet AGL
QC Flag:automated observation with no human augmentation
Text:KBIJ 012035Z AUTO 20005KT 10SM CLR 30/22 A3002 RMK AO2 LTG DSNT N
Temperature: 30.0°C ( 86°F)
Dewpoint: 22.0°C ( 72°F) [RH = 62%]
Pressure (altimeter):30.02 inches Hg (1016.7 mb)
Winds:from the SSW (200 degrees) at 6 MPH (5 knots; 2.6 m/s)
Visibility:10 or more sm (16+ km)
Ceiling:at least 12,000 feet AGL
Clouds:sky clear below 12,000 feet AGL
QC Flag:automated observation with no human augmentation
Text:KBIJ 012015Z AUTO 15003KT 10SM SCT044 30/22 A3003 RMK AO2 LTG DSNT NE
Temperature: 30.0°C ( 86°F)
Dewpoint: 22.0°C ( 72°F) [RH = 62%]
Pressure (altimeter):30.03 inches Hg (1017.0 mb)
Winds:from the SSE (150 degrees) at 3 MPH (3 knots; 1.5 m/s)
Visibility:10 or more sm (16+ km)
Ceiling:at least 12,000 feet AGL
Clouds: scattered clouds at 4400 feet AGL
QC Flag:automated observation with no human augmentation
Text:KBIJ 011955Z AUTO 13003KT 10SM CLR 30/21 A3004 RMK AO2
Temperature: 30.0°C ( 86°F)
Dewpoint: 21.0°C ( 70°F) [RH = 59%]
Pressure (altimeter):30.04 inches Hg (1017.4 mb)
Winds:from the SE (130 degrees) at 3 MPH (3 knots; 1.5 m/s)
Visibility:10 or more sm (16+ km)
Ceiling:at least 12,000 feet AGL
Clouds:sky clear below 12,000 feet AGL
QC Flag:automated observation with no human augmentation
Text:KBIJ 011935Z AUTO 00000KT 10SM CLR 30/21 A3003 RMK AO2
Temperature: 30.0°C ( 86°F)
Dewpoint: 21.0°C ( 70°F) [RH = 59%]
Pressure (altimeter):30.03 inches Hg (1017.0 mb)
Winds:calm
Visibility:10 or more sm (16+ km)
Ceiling:at least 12,000 feet AGL
Clouds:sky clear below 12,000 feet AGL
QC Flag:automated observation with no human augmentation
Text:KBIJ 011915Z AUTO 00000KT 10SM CLR 27/21 A3003 RMK AO2 LTG DSNT SE AND S
Temperature: 27.0°C ( 81°F)
Dewpoint: 21.0°C ( 70°F) [RH = 70%]
Pressure (altimeter):30.03 inches Hg (1017.0 mb)
Winds:calm
Visibility:10 or more sm (16+ km)
Ceiling:at least 12,000 feet AGL
Clouds:sky clear below 12,000 feet AGL
QC Flag:automated observation with no human augmentation
Text:KBIJ 011855Z AUTO 00000KT 10SM CLR 26/22 A3005 RMK AO2
Temperature: 26.0°C ( 79°F)
Dewpoint: 22.0°C ( 72°F) [RH = 79%]
Pressure (altimeter):30.05 inches Hg (1017.7 mb)
Winds:calm
Visibility:10 or more sm (16+ km)
Ceiling:at least 12,000 feet AGL
Clouds:sky clear below 12,000 feet AGL
QC Flag:automated observation with no human augmentation
Text:KBIJ 011835Z AUTO 00000KT 10SM SCT060 SCT075 SCT100 25/22 A3007 RMK AO2
Temperature: 25.0°C ( 77°F)
Dewpoint: 22.0°C ( 72°F) [RH = 83%]
Pressure (altimeter):30.07 inches Hg (1018.4 mb)
Winds:calm
Visibility:10 or more sm (16+ km)
Ceiling:at least 12,000 feet AGL
Clouds: scattered clouds at 6000 feet AGL, scattered clouds at 7500 feet AGL, scattered clouds at 10000 feet AGL
QC Flag:automated observation with no human augmentation
Text:KBIJ 011815Z AUTO 00000KT 7SM -RA SCT017 BKN075 OVC090 25/22 A3007 RMK AO2 LTG DSNT SE
Temperature: 25.0°C ( 77°F)
Dewpoint: 22.0°C ( 72°F) [RH = 83%]
Pressure (altimeter):30.07 inches Hg (1018.4 mb)
Winds:calm
Visibility: 7 sm ( 11 km)
Ceiling:7500 feet AGL
Clouds: scattered clouds at 1700 feet AGL, broken clouds at 7500 feet AGL, overcast cloud deck at 9000 feet AGL
Weather:-RA (light rain)
QC Flag:automated observation with no human augmentation
Text:KBIJ 011755Z AUTO 21007KT 7SM +RA SCT038 BKN060 OVC080 25/22 A3008 RMK AO2
Temperature: 25.0°C ( 77°F)
Dewpoint: 22.0°C ( 72°F) [RH = 83%]
Pressure (altimeter):30.08 inches Hg (1018.7 mb)
Winds:from the SSW (210 degrees) at 8 MPH (7 knots; 3.6 m/s)
Visibility: 7 sm ( 11 km)
Ceiling:6000 feet AGL
Clouds: scattered clouds at 3800 feet AGL, broken clouds at 6000 feet AGL, overcast cloud deck at 8000 feet AGL
Weather:+RA (heavy rain)
QC Flag:automated observation with no human augmentation
Text:KBIJ 011735Z AUTO 18005KT 10SM SCT040 SCT065 BKN110 26/20 A3009 RMK AO2
Temperature: 26.0°C ( 79°F)
Dewpoint: 20.0°C ( 68°F) [RH = 70%]
Pressure (altimeter):30.09 inches Hg (1019.0 mb)
Winds:from the S (180 degrees) at 6 MPH (5 knots; 2.6 m/s)
Visibility:10 or more sm (16+ km)
Ceiling:11000 feet AGL
Clouds: scattered clouds at 4000 feet AGL, scattered clouds at 6500 feet AGL, broken clouds at 11000 feet AGL
QC Flag:automated observation with no human augmentation
Text:KBIJ 011715Z AUTO 12006KT 10SM SCT110 27/21 A3009 RMK AO2
Temperature: 27.0°C ( 81°F)
Dewpoint: 21.0°C ( 70°F) [RH = 70%]
Pressure (altimeter):30.09 inches Hg (1019.0 mb)
Winds:from the ESE (120 degrees) at 7 MPH (6 knots; 3.1 m/s)
Visibility:10 or more sm (16+ km)
Ceiling:at least 12,000 feet AGL
Clouds: scattered clouds at 11000 feet AGL
QC Flag:automated observation with no human augmentation
Text:KBIJ 011655Z AUTO 09005KT 10SM VCTS BKN110 28/21 A3010 RMK AO2 LTG DSNT SE
Temperature: 28.0°C ( 82°F)
Dewpoint: 21.0°C ( 70°F) [RH = 66%]
Pressure (altimeter):30.10 inches Hg (1019.4 mb)
Winds:from the E (90 degrees) at 6 MPH (5 knots; 2.6 m/s)
Visibility:10 or more sm (16+ km)
Ceiling:11000 feet AGL
Clouds: broken clouds at 11000 feet AGL
Weather:VCTS (thunderstorm in vicinity)
QC Flag:automated observation with no human augmentation
Text:KBIJ 011635Z AUTO 05004KT 10SM SCT050 SCT085 BKN120 29/21 A3010 RMK AO2 LTG DSNT E THRU SW
Temperature: 29.0°C ( 84°F)
Dewpoint: 21.0°C ( 70°F) [RH = 62%]
Pressure (altimeter):30.10 inches Hg (1019.4 mb)
Winds:from the NE (50 degrees) at 5 MPH (4 knots; 2.1 m/s)
Visibility:10 or more sm (16+ km)
Ceiling:12000 feet AGL
Clouds: scattered clouds at 5000 feet AGL, scattered clouds at 8500 feet AGL, broken clouds at 12000 feet AGL
QC Flag:automated observation with no human augmentation
Text:KBIJ 011615Z AUTO 01003KT 10SM SCT032 BKN055 OVC085 29/21 A3011 RMK AO2
Temperature: 29.0°C ( 84°F)
Dewpoint: 21.0°C ( 70°F) [RH = 62%]
Pressure (altimeter):30.11 inches Hg (1019.7 mb)
Winds:from the N (10 degrees) at 3 MPH (3 knots; 1.5 m/s)
Visibility:10 or more sm (16+ km)
Ceiling:5500 feet AGL
Clouds: scattered clouds at 3200 feet AGL, broken clouds at 5500 feet AGL, overcast cloud deck at 8500 feet AGL
QC Flag:automated observation with no human augmentation
Text:KBIJ 011555Z AUTO 00000KT 10SM SCT032 SCT039 SCT048 30/21 A3011 RMK AO2 LTG DSNT SW
Temperature: 30.0°C ( 86°F)
Dewpoint: 21.0°C ( 70°F) [RH = 59%]
Pressure (altimeter):30.11 inches Hg (1019.7 mb)
Winds:calm
Visibility:10 or more sm (16+ km)
Ceiling:at least 12,000 feet AGL
Clouds: scattered clouds at 3200 feet AGL, scattered clouds at 3900 feet AGL, scattered clouds at 4800 feet AGL
QC Flag:automated observation with no human augmentation
Text:KBIJ 011535Z AUTO 00000KT 10SM SCT050 30/22 A3011 RMK AO2
Temperature: 30.0°C ( 86°F)
Dewpoint: 22.0°C ( 72°F) [RH = 62%]
Pressure (altimeter):30.11 inches Hg (1019.7 mb)
Winds:calm
Visibility:10 or more sm (16+ km)
Ceiling:at least 12,000 feet AGL
Clouds: scattered clouds at 5000 feet AGL
QC Flag:automated observation with no human augmentation
Text:KBIJ 011515Z AUTO 00000KT 10SM CLR 30/21 A3012 RMK AO2 LTG DSNT SW
Temperature: 30.0°C ( 86°F)
Dewpoint: 21.0°C ( 70°F) [RH = 59%]
Pressure (altimeter):30.12 inches Hg (1020.1 mb)
Winds:calm
Visibility:10 or more sm (16+ km)
Ceiling:at least 12,000 feet AGL
Clouds:sky clear below 12,000 feet AGL
QC Flag:automated observation with no human augmentation